createdAt,value
2023-11-10T00:00:22.796Z,50.852852
2023-11-10T00:01:22.724Z,50.852871
2023-11-10T00:02:22.746Z,50.852894
2023-11-10T00:03:23.050Z,50.852901
2023-11-10T00:04:22.919Z,50.852890
2023-11-10T00:05:23.082Z,50.852882
2023-11-10T00:06:22.717Z,50.852875
2023-11-10T00:07:22.690Z,50.852863
2023-11-10T00:08:22.719Z,50.852863
2023-11-10T00:09:22.683Z,50.852840
2023-11-10T00:10:22.678Z,50.852806
2023-11-10T00:11:22.660Z,50.852856
2023-11-10T00:12:22.703Z,50.852886
2023-11-10T00:13:22.660Z,50.852871
2023-11-10T00:14:30.693Z,50.852886
2023-11-10T00:15:23.687Z,50.852848
2023-11-10T00:16:22.651Z,50.852844
2023-11-10T00:17:22.631Z,50.852882
2023-11-10T00:18:22.689Z,50.852905
2023-11-10T00:19:22.629Z,50.852871
2023-11-10T00:20:22.674Z,50.852863
2023-11-10T00:21:22.623Z,50.852859
2023-11-10T00:22:22.612Z,50.852871
2023-11-10T00:23:22.606Z,50.852879
2023-11-10T00:24:22.621Z,50.852867
2023-11-10T00:25:22.574Z,50.852879
2023-11-10T00:26:22.621Z,50.852871
2023-11-10T00:27:22.580Z,50.852882
2023-11-10T00:28:22.589Z,50.852867
2023-11-10T00:29:22.564Z,50.852886
2023-11-10T00:30:22.586Z,50.852867
2023-11-10T00:31:22.544Z,50.852879
2023-11-10T00:32:22.609Z,50.852882
2023-11-10T00:33:22.708Z,50.852901
2023-11-10T00:34:22.611Z,50.852905
2023-11-10T00:35:22.517Z,50.852882
2023-11-10T00:36:22.591Z,50.852879
2023-11-10T00:37:22.516Z,50.852917
2023-11-10T00:38:22.565Z,50.852928
2023-11-10T00:39:22.542Z,50.852898
2023-11-10T00:40:22.510Z,50.852905
2023-11-10T00:41:22.504Z,50.852863
2023-11-10T00:42:22.525Z,50.852840
2023-11-10T00:43:22.482Z,50.852837
2023-11-10T00:44:22.487Z,50.852837
2023-11-10T00:45:22.461Z,50.852859
2023-11-10T00:46:22.513Z,50.852840
2023-11-10T00:47:22.493Z,50.852867
2023-11-10T00:48:22.514Z,50.852879
2023-11-10T00:49:22.458Z,50.852894
2023-11-10T00:50:22.465Z,50.852890
2023-11-10T00:51:22.462Z,50.852875
2023-11-10T00:52:22.727Z,50.852852
2023-11-10T00:53:22.460Z,50.852844
2023-11-10T00:54:22.451Z,50.852859
2023-11-10T00:55:22.411Z,50.852856
2023-11-10T00:56:22.450Z,50.852848
2023-11-10T00:57:22.452Z,50.852867
2023-11-10T00:58:22.422Z,50.852901
2023-11-10T00:59:22.394Z,50.852909
2023-11-10T01:00:22.425Z,50.852905
2023-11-10T01:01:22.421Z,50.852909
2023-11-10T01:02:22.499Z,50.852886
2023-11-10T01:03:22.478Z,50.852890
2023-11-10T01:04:22.425Z,50.852894
2023-11-10T01:05:22.356Z,50.852867
2023-11-10T01:06:22.500Z,50.852863
2023-11-10T01:07:22.363Z,50.852833
2023-11-10T01:08:22.364Z,50.852833
2023-11-10T01:09:22.356Z,50.852821
2023-11-10T01:10:22.371Z,50.852829
2023-11-10T01:11:22.349Z,50.852810
2023-11-10T01:12:22.394Z,50.852806
2023-11-10T01:13:22.326Z,50.852814
2023-11-10T01:14:22.325Z,50.852833
2023-11-10T01:15:22.353Z,50.852856
2023-11-10T01:16:22.379Z,50.852852
2023-11-10T01:17:22.306Z,50.852837
2023-11-10T01:18:22.349Z,50.852798
2023-11-10T01:19:22.284Z,50.852818
2023-11-10T01:20:22.308Z,50.852772
2023-11-10T01:21:22.298Z,50.852802
2023-11-10T01:22:22.298Z,50.852776
2023-11-10T01:23:22.269Z,50.852779
2023-11-10T01:24:22.272Z,50.852798
2023-11-10T01:25:22.289Z,50.852814
2023-11-10T01:26:22.291Z,50.852818
2023-11-10T01:27:22.283Z,50.852791
2023-11-10T01:28:22.270Z,50.852798
2023-11-10T01:29:22.234Z,50.852802
2023-11-10T01:30:22.267Z,50.852821
2023-11-10T01:31:22.254Z,50.852798
2023-11-10T01:32:22.269Z,50.852791
2023-11-10T01:33:22.353Z,50.852776
2023-11-10T01:34:22.238Z,50.852802
2023-11-10T01:35:22.193Z,50.852795
2023-11-10T01:36:22.247Z,50.852814
2023-11-10T01:37:22.220Z,50.852802
2023-11-10T01:38:22.199Z,50.852783
2023-11-10T01:39:22.199Z,50.852783
2023-11-10T01:40:22.188Z,50.852779
2023-11-10T01:41:22.191Z,50.852802
2023-11-10T01:42:22.206Z,50.852795
2023-11-10T01:43:22.166Z,50.852795
2023-11-10T01:44:22.164Z,50.852787
2023-11-10T01:45:22.173Z,50.852768
2023-11-10T01:46:22.208Z,50.852787
2023-11-10T01:47:22.153Z,50.852791
2023-11-10T01:48:22.177Z,50.852802
2023-11-10T01:49:22.233Z,50.852806
2023-11-10T01:50:22.142Z,50.852810
2023-11-10T01:51:22.154Z,50.852814
2023-11-10T01:52:22.120Z,50.852802
2023-11-10T01:53:22.121Z,50.852798
2023-11-10T01:54:22.297Z,50.852810
2023-11-10T01:55:22.103Z,50.852810
2023-11-10T01:56:22.096Z,50.852806
2023-11-10T01:57:22.113Z,50.852829
2023-11-10T01:58:22.081Z,50.852795
2023-11-10T01:59:22.088Z,50.852825
2023-11-10T02:00:22.109Z,50.852783
2023-11-10T02:01:22.057Z,50.852795
2023-11-10T02:02:22.145Z,50.852798
2023-11-10T02:03:22.209Z,50.852806
2023-11-10T02:04:22.153Z,50.852779
2023-11-10T02:05:22.045Z,50.852783
2023-11-10T02:06:22.055Z,50.852795
2023-11-10T02:07:22.017Z,50.852764
2023-11-10T02:08:22.046Z,50.852779
2023-11-10T02:09:22.050Z,50.852760
2023-11-10T02:10:22.063Z,50.852776
2023-11-10T02:11:22.001Z,50.852783
2023-11-10T02:12:22.038Z,50.852741
2023-11-10T02:13:22.014Z,50.852726
2023-11-10T02:14:22.081Z,50.852757
2023-11-10T02:15:22.025Z,50.852787
2023-11-10T02:16:22.019Z,50.852779
2023-11-10T02:17:21.989Z,50.852753
2023-11-10T02:18:21.983Z,50.852776
2023-11-10T02:19:21.967Z,50.852768
2023-11-10T02:20:21.980Z,50.852753
2023-11-10T02:21:21.974Z,50.852749
2023-11-10T02:22:21.968Z,50.852753
2023-11-10T02:23:21.952Z,50.852749
2023-11-10T02:24:21.972Z,50.852802
2023-11-10T02:25:21.945Z,50.852802
2023-11-10T02:26:21.976Z,50.852779
2023-11-10T02:27:21.982Z,50.852760
2023-11-10T02:28:21.943Z,50.852783
2023-11-10T02:29:21.941Z,50.852768
2023-11-10T02:30:21.939Z,50.852776
2023-11-10T02:31:21.926Z,50.852776
2023-11-10T02:32:21.907Z,50.852791
2023-11-10T02:33:21.906Z,50.852768
2023-11-10T02:34:21.920Z,50.852772
2023-11-10T02:35:21.897Z,50.852787
2023-11-10T02:36:21.883Z,50.852783
2023-11-10T02:37:21.854Z,50.852810
2023-11-10T02:38:21.864Z,50.852787
2023-11-10T02:39:21.872Z,50.852798
2023-11-10T02:40:21.862Z,50.852806
2023-11-10T02:41:21.827Z,50.852814
2023-11-10T02:42:21.900Z,50.852798
2023-11-10T02:43:21.833Z,50.852798
2023-11-10T02:44:21.837Z,50.852768
2023-11-10T02:45:21.853Z,50.852776
2023-11-10T02:46:21.907Z,50.852749
2023-11-10T02:47:21.803Z,50.852760
2023-11-10T02:48:21.821Z,50.852795
2023-11-10T02:49:21.798Z,50.852787
2023-11-10T02:50:22.025Z,50.852779
2023-11-10T02:51:21.784Z,50.852730
2023-11-10T02:52:21.774Z,50.852768
2023-11-10T02:53:21.758Z,50.852764
2023-11-10T02:54:21.784Z,50.852745
2023-11-10T02:55:21.757Z,50.852753
2023-11-10T02:56:21.820Z,50.852802
2023-11-10T02:57:21.749Z,50.852776
2023-11-10T02:58:21.749Z,50.852749
2023-11-10T02:59:21.737Z,50.852726
2023-11-10T03:00:21.793Z,50.852760
2023-11-10T03:01:21.750Z,50.852760
2023-11-10T03:02:21.729Z,50.852749
2023-11-10T03:03:21.781Z,50.852749
2023-11-10T03:04:21.761Z,50.852776
2023-11-10T03:05:21.821Z,50.852798
2023-11-10T03:06:21.737Z,50.852779
2023-11-10T03:07:21.705Z,50.852760
2023-11-10T03:08:21.700Z,50.852718
2023-11-10T03:09:21.758Z,50.852783
2023-11-10T03:10:21.714Z,50.852791
2023-11-10T03:11:21.669Z,50.852764
2023-11-10T03:12:21.797Z,50.852798
2023-11-10T03:13:21.659Z,50.852795
2023-11-10T03:14:21.678Z,50.852772
2023-11-10T03:15:21.694Z,50.852734
2023-11-10T03:16:21.667Z,50.852726
2023-11-10T03:17:21.681Z,50.852737
2023-11-10T03:18:21.757Z,50.852764
2023-11-10T03:19:21.624Z,50.852741
2023-11-10T03:20:21.636Z,50.852749
2023-11-10T03:21:21.618Z,50.852757
2023-11-10T03:22:21.636Z,50.852749
2023-11-10T03:23:21.634Z,50.852734
2023-11-10T03:24:21.678Z,50.852715
2023-11-10T03:25:21.592Z,50.852718
2023-11-10T03:26:21.613Z,50.852737
2023-11-10T03:27:21.616Z,50.852737
2023-11-10T03:28:21.595Z,50.852726
2023-11-10T03:29:21.570Z,50.852753
2023-11-10T03:30:21.648Z,50.852749
2023-11-10T03:31:21.602Z,50.852772
2023-11-10T03:32:21.569Z,50.852798
2023-11-10T03:33:21.570Z,50.852787
2023-11-10T03:34:21.563Z,50.852753
2023-11-10T03:35:21.537Z,50.852760
2023-11-10T03:36:21.580Z,50.852749
2023-11-10T03:37:21.539Z,50.852768
2023-11-10T03:38:21.542Z,50.852783
2023-11-10T03:39:21.548Z,50.852753
2023-11-10T03:40:21.699Z,50.852753
2023-11-10T03:41:21.510Z,50.852753
2023-11-10T03:42:21.564Z,50.852757
2023-11-10T03:43:21.495Z,50.852757
2023-11-10T03:44:21.511Z,50.852795
2023-11-10T03:45:21.502Z,50.852779
2023-11-10T03:46:21.510Z,50.852810
2023-11-10T03:47:21.496Z,50.852783
2023-11-10T03:48:21.493Z,50.852814
2023-11-10T03:49:21.466Z,50.852810
2023-11-10T03:50:21.478Z,50.852818
2023-11-10T03:51:21.478Z,50.852787
2023-11-10T03:52:21.463Z,50.852840
2023-11-10T03:53:21.476Z,50.852844
2023-11-10T03:54:21.457Z,50.852768
2023-11-10T03:55:21.432Z,50.852814
2023-11-10T03:56:21.461Z,50.852871
2023-11-10T03:57:21.469Z,50.852757
2023-11-10T03:58:21.455Z,50.852825
2023-11-10T03:59:21.431Z,50.852791
2023-11-10T04:00:21.463Z,50.852825
2023-11-10T04:01:21.517Z,50.852791
2023-11-10T04:02:21.422Z,50.852768
2023-11-10T04:03:21.489Z,50.852726
2023-11-10T04:04:21.485Z,50.852757
2023-11-10T04:05:21.378Z,50.852673
2023-11-10T04:06:31.287Z,50.852764
2023-11-10T04:07:22.437Z,50.852814
2023-11-10T04:08:21.374Z,50.852894
2023-11-10T04:09:21.369Z,50.852898
2023-11-10T04:10:21.360Z,50.852844
2023-11-10T04:11:21.337Z,50.852837
2023-11-10T04:12:21.393Z,50.852798
2023-11-10T04:13:21.318Z,50.852779
2023-11-10T04:14:21.357Z,50.852772
2023-11-10T04:15:21.342Z,50.852779
2023-11-10T04:16:21.417Z,50.852783
2023-11-10T04:17:21.305Z,50.852802
2023-11-10T04:18:21.342Z,50.852814
2023-11-10T04:19:21.290Z,50.852825
2023-11-10T04:20:21.322Z,50.852806
2023-11-10T04:21:21.338Z,50.852814
2023-11-10T04:22:21.293Z,50.852848
2023-11-10T04:23:21.269Z,50.852821
2023-11-10T04:24:21.316Z,50.852806
2023-11-10T04:25:21.266Z,50.852859
2023-11-10T04:26:21.271Z,50.852806
2023-11-10T04:27:21.282Z,50.852798
2023-11-10T04:28:21.264Z,50.852791
2023-11-10T04:29:21.233Z,50.852779
2023-11-10T04:30:21.311Z,50.852779
2023-11-10T04:31:21.252Z,50.852783
2023-11-10T04:32:21.234Z,50.852783
2023-11-10T04:33:21.272Z,50.852760
2023-11-10T04:34:21.271Z,50.852760
2023-11-10T04:35:21.192Z,50.852787
2023-11-10T04:36:21.255Z,50.852818
2023-11-10T04:37:21.217Z,50.852806
2023-11-10T04:38:21.189Z,50.852798
2023-11-10T04:39:21.218Z,50.852810
2023-11-10T04:40:21.191Z,50.852859
2023-11-10T04:41:21.164Z,50.852810
2023-11-10T04:42:21.199Z,50.852776
2023-11-10T04:43:21.160Z,50.852806
2023-11-10T04:44:21.162Z,50.852837
2023-11-10T04:45:21.172Z,50.852814
2023-11-10T04:46:21.187Z,50.852802
2023-11-10T04:47:21.142Z,50.852791
2023-11-10T04:48:21.190Z,50.852795
2023-11-10T04:49:21.124Z,50.852795
2023-11-10T04:50:21.124Z,50.852791
2023-11-10T04:51:21.143Z,50.852806
2023-11-10T04:52:21.130Z,50.852840
2023-11-10T04:53:21.109Z,50.852798
2023-11-10T04:54:21.125Z,50.852829
2023-11-10T04:55:21.079Z,50.852810
2023-11-10T04:56:21.094Z,50.852798
2023-11-10T04:57:21.086Z,50.852810
2023-11-10T04:58:21.103Z,50.852818
2023-11-10T04:59:21.070Z,50.852818
2023-11-10T05:00:21.106Z,50.852795
2023-11-10T05:01:21.093Z,50.852810
2023-11-10T05:02:21.093Z,50.852783
2023-11-10T05:03:21.114Z,50.852798
2023-11-10T05:04:21.140Z,50.852821
2023-11-10T05:05:21.036Z,50.852802
2023-11-10T05:06:21.058Z,50.852844
2023-11-10T05:07:21.022Z,50.852818
2023-11-10T05:08:21.032Z,50.852802
2023-11-10T05:09:21.018Z,50.852802
2023-11-10T05:10:21.048Z,50.852818
2023-11-10T05:11:20.997Z,50.852852
2023-11-10T05:12:21.018Z,50.852867
2023-11-10T05:13:20.986Z,50.852859
2023-11-10T05:14:20.990Z,50.852848
2023-11-10T05:15:20.970Z,50.852863
2023-11-10T05:16:21.033Z,50.852856
2023-11-10T05:17:20.953Z,50.852825
2023-11-10T05:19:20.960Z,50.852856
2023-11-10T05:20:20.966Z,50.852825
2023-11-10T05:21:20.978Z,50.852814
2023-11-10T05:22:20.970Z,50.852825
2023-11-10T05:23:20.927Z,50.852787
2023-11-10T05:24:20.939Z,50.852844
2023-11-10T05:25:20.921Z,50.852818
2023-11-10T05:26:20.922Z,50.852829
2023-11-10T05:27:20.911Z,50.852837
2023-11-10T05:28:20.925Z,50.852833
2023-11-10T05:29:20.886Z,50.852818
2023-11-10T05:30:21.236Z,50.852859
2023-11-10T05:31:20.897Z,50.852863
2023-11-10T05:32:20.910Z,50.852867
2023-11-10T05:33:20.895Z,50.852867
2023-11-10T05:34:20.938Z,50.852894
2023-11-10T05:35:20.851Z,50.852879
2023-11-10T05:36:20.893Z,50.852886
2023-11-10T05:37:20.846Z,50.852886
2023-11-10T05:38:20.887Z,50.852886
2023-11-10T05:39:20.897Z,50.852856
2023-11-10T05:40:20.847Z,50.852898
2023-11-10T05:41:20.830Z,50.852844
2023-11-10T05:42:20.894Z,50.852833
2023-11-10T05:43:20.819Z,50.852829
2023-11-10T05:44:20.827Z,50.852837
2023-11-10T05:45:20.868Z,50.852867
2023-11-10T05:46:20.823Z,50.852810
2023-11-10T05:47:20.803Z,50.852829
2023-11-10T05:48:20.865Z,50.852852
2023-11-10T05:49:20.784Z,50.852844
2023-11-10T05:50:20.807Z,50.852825
2023-11-10T05:51:20.786Z,50.852798
2023-11-10T05:52:20.778Z,50.852821
2023-11-10T05:53:20.767Z,50.852810
2023-11-10T05:54:20.790Z,50.852791
2023-11-10T05:55:20.783Z,50.852825
2023-11-10T05:56:23.875Z,50.852798
2023-11-10T05:57:20.769Z,50.852833
2023-11-10T05:58:20.772Z,50.852791
2023-11-10T05:59:20.741Z,50.852821
2023-11-10T06:00:20.804Z,50.852844
2023-11-10T06:01:20.836Z,50.852818
2023-11-10T06:02:20.763Z,50.852802
2023-11-10T06:03:20.841Z,50.852829
2023-11-10T06:04:28.912Z,50.852791
2023-11-10T06:05:21.707Z,50.852821
2023-11-10T06:06:20.722Z,50.852818
2023-11-10T06:07:20.702Z,50.852814
2023-11-10T06:08:20.688Z,50.852837
2023-11-10T06:09:20.670Z,50.852810
2023-11-10T06:10:20.676Z,50.852837
2023-11-10T06:11:20.659Z,50.852821
2023-11-10T06:12:20.706Z,50.852810
2023-11-10T06:13:20.662Z,50.852810
2023-11-10T06:14:20.663Z,50.852810
2023-11-10T06:15:21.830Z,50.852802
2023-11-10T06:16:20.683Z,50.852821
2023-11-10T06:17:20.625Z,50.852818
2023-11-10T06:18:20.639Z,50.852840
2023-11-10T06:19:20.673Z,50.852848
2023-11-10T06:20:20.635Z,50.852859
2023-11-10T06:21:20.606Z,50.852837
2023-11-10T06:22:20.603Z,50.852833
2023-11-10T06:23:20.578Z,50.852856
2023-11-10T06:24:20.619Z,50.852852
2023-11-10T06:25:20.596Z,50.852833
2023-11-10T06:26:20.584Z,50.852833
2023-11-10T06:27:20.641Z,50.852810
2023-11-10T06:28:20.614Z,50.852821
2023-11-10T06:29:20.543Z,50.852837
2023-11-10T06:30:20.599Z,50.852844
2023-11-10T06:31:20.580Z,50.852848
2023-11-10T06:32:20.576Z,50.852844
2023-11-10T06:33:20.675Z,50.852859
2023-11-10T06:34:20.523Z,50.852859
2023-11-10T06:35:20.514Z,50.852848
2023-11-10T06:36:20.542Z,50.852833
2023-11-10T06:37:20.570Z,50.852852
2023-11-10T06:38:20.510Z,50.852840
2023-11-10T06:39:20.508Z,50.852825
2023-11-10T06:40:20.500Z,50.852825
2023-11-10T06:41:20.474Z,50.852856
2023-11-10T06:42:20.521Z,50.852837
2023-11-10T06:43:20.493Z,50.852818
2023-11-10T06:44:20.744Z,50.852837
2023-11-10T06:45:20.477Z,50.852837
2023-11-10T06:46:20.540Z,50.852840
2023-11-10T06:47:20.530Z,50.852840
2023-11-10T06:48:20.528Z,50.852848
2023-11-10T06:49:20.430Z,50.852848
2023-11-10T06:50:20.430Z,50.852867
2023-11-10T06:51:20.428Z,50.852837
2023-11-10T06:52:20.430Z,50.852852
2023-11-10T06:53:20.425Z,50.852825
2023-11-10T06:54:20.428Z,50.852848
2023-11-10T06:55:20.397Z,50.852821
2023-11-10T06:56:20.417Z,50.852818
2023-11-10T06:57:20.406Z,50.852856
2023-11-10T06:58:20.430Z,50.852898
2023-11-10T06:59:20.375Z,50.852924
2023-11-10T07:00:20.426Z,50.852837
2023-11-10T07:01:20.495Z,50.852825
2023-11-10T07:02:20.411Z,50.852844
2023-11-10T07:03:20.453Z,50.852833
2023-11-10T07:04:20.429Z,50.852829
2023-11-10T07:05:20.341Z,50.852730
2023-11-10T07:06:20.406Z,50.852772
2023-11-10T07:07:20.364Z,50.852749
2023-11-10T07:08:20.336Z,50.852657
2023-11-10T07:09:20.340Z,50.852688
2023-11-10T07:10:20.335Z,50.852745
2023-11-10T07:11:20.325Z,50.852715
2023-11-10T07:12:20.335Z,50.852737
2023-11-10T07:13:20.296Z,50.852673
2023-11-10T07:14:20.325Z,50.852783
2023-11-10T07:15:20.302Z,50.852886
2023-11-10T07:16:20.413Z,50.852791
2023-11-10T07:17:20.294Z,50.852676
2023-11-10T07:18:20.313Z,50.852886
2023-11-10T07:19:20.278Z,50.852745
2023-11-10T07:20:20.267Z,50.852818
2023-11-10T07:21:20.269Z,50.852730
2023-11-10T07:22:20.285Z,50.852783
2023-11-10T07:23:20.258Z,50.852722
2023-11-10T07:24:20.298Z,50.852646
2023-11-10T07:25:20.240Z,50.852802
2023-11-10T07:26:20.238Z,50.852772
2023-11-10T07:27:20.217Z,50.852779
2023-11-10T07:28:20.227Z,50.852779
2023-11-10T07:29:20.212Z,50.852753
2023-11-10T07:30:20.279Z,50.852787
2023-11-10T07:31:20.204Z,50.852825
2023-11-10T07:32:20.197Z,50.852840
2023-11-10T07:33:20.225Z,50.852760
2023-11-10T07:34:20.236Z,50.852703
2023-11-10T07:35:20.172Z,50.852783
2023-11-10T07:36:20.220Z,50.852818
2023-11-10T07:37:20.146Z,50.852875
2023-11-10T07:38:20.158Z,50.852837
2023-11-10T07:39:20.257Z,50.852760
2023-11-10T07:40:20.166Z,50.852768
2023-11-10T07:41:20.133Z,50.852791
2023-11-10T07:42:20.195Z,50.852806
2023-11-10T07:43:20.109Z,50.852844
2023-11-10T07:44:20.138Z,50.852833
2023-11-10T07:45:20.201Z,50.852833
2023-11-10T07:46:20.157Z,50.852818
2023-11-10T07:47:20.084Z,50.852859
2023-11-10T07:48:20.127Z,50.852875
2023-11-10T07:49:20.091Z,50.852909
2023-11-10T07:50:20.117Z,50.852886
2023-11-10T07:51:20.085Z,50.852856
2023-11-10T07:52:20.074Z,50.852829
2023-11-10T07:53:20.061Z,50.852802
2023-11-10T07:54:20.114Z,50.852791
2023-11-10T07:55:20.067Z,50.852833
2023-11-10T07:56:20.056Z,50.852814
2023-11-10T07:57:20.103Z,50.852856
2023-11-10T07:58:20.048Z,50.852909
2023-11-10T07:59:20.037Z,50.852856
2023-11-10T08:00:20.601Z,50.852825
2023-11-10T08:01:20.024Z,50.852791
2023-11-10T08:02:20.029Z,50.852787
2023-11-10T08:03:20.135Z,50.852791
2023-11-10T08:04:20.174Z,50.852791
2023-11-10T08:05:20.070Z,50.852795
2023-11-10T08:06:20.064Z,50.852768
2023-11-10T08:07:19.982Z,50.852779
2023-11-10T08:08:20.012Z,50.852779
2023-11-10T08:09:19.992Z,50.852787
2023-11-10T08:10:20.024Z,50.852783
2023-11-10T08:11:19.958Z,50.852791
2023-11-10T08:12:19.996Z,50.852783
2023-11-10T08:13:19.947Z,50.852783
2023-11-10T08:14:19.969Z,50.852772
2023-11-10T08:15:19.962Z,50.852768
2023-11-10T08:16:20.665Z,50.852776
2023-11-10T08:17:19.920Z,50.852753
2023-11-10T08:18:19.962Z,50.852760
2023-11-10T08:19:19.935Z,50.852749
2023-11-10T08:20:19.939Z,50.852745
2023-11-10T08:21:19.993Z,50.852753
2023-11-10T08:22:19.916Z,50.852749
2023-11-10T08:23:19.902Z,50.852753
2023-11-10T08:24:19.930Z,50.852741
2023-11-10T08:25:19.893Z,50.852768
2023-11-10T08:26:19.933Z,50.852772
2023-11-10T08:27:19.912Z,50.852768
2023-11-10T08:28:19.872Z,50.852760
2023-11-10T08:29:19.850Z,50.852749
2023-11-10T08:30:19.935Z,50.852753
2023-11-10T08:31:19.902Z,50.852711
2023-11-10T08:32:19.894Z,50.852730
2023-11-10T08:33:19.963Z,50.852711
2023-11-10T08:34:19.856Z,50.852707
2023-11-10T08:35:19.830Z,50.852726
2023-11-10T08:36:19.984Z,50.852703
2023-11-10T08:37:19.821Z,50.852730
2023-11-10T08:38:19.833Z,50.852737
2023-11-10T08:39:19.810Z,50.852734
2023-11-10T08:40:19.876Z,50.852699
2023-11-10T08:41:19.806Z,50.852730
2023-11-10T08:42:19.802Z,50.852734
2023-11-10T08:43:19.781Z,50.852734
2023-11-10T08:44:19.793Z,50.852718
2023-11-10T08:45:19.772Z,50.852707
2023-11-10T08:46:19.904Z,50.852730
2023-11-10T08:47:19.768Z,50.852730
2023-11-10T08:48:19.772Z,50.852737
2023-11-10T08:49:19.777Z,50.852749
2023-11-10T08:50:19.759Z,50.852741
2023-11-10T08:51:19.757Z,50.852741
2023-11-10T08:52:19.775Z,50.852730
2023-11-10T08:53:19.725Z,50.852741
2023-11-10T08:54:19.729Z,50.852726
2023-11-10T08:55:19.700Z,50.852753
2023-11-10T08:56:19.722Z,50.852749
2023-11-10T08:57:19.757Z,50.852764
2023-11-10T08:58:19.704Z,50.852753
2023-11-10T08:59:19.700Z,50.852734
2023-11-10T09:00:19.683Z,50.852722
2023-11-10T09:01:19.671Z,50.852711
2023-11-10T09:02:19.700Z,50.852718
2023-11-10T09:03:19.689Z,50.852734
2023-11-10T09:04:24.875Z,50.852722
2023-11-10T09:05:20.704Z,50.852741
2023-11-10T09:06:19.679Z,50.852737
2023-11-10T09:07:19.627Z,50.852722
2023-11-10T09:08:19.670Z,50.852711
2023-11-10T09:09:19.619Z,50.852737
2023-11-10T09:10:19.643Z,50.852749
2023-11-10T09:11:19.605Z,50.852753
2023-11-10T09:12:19.616Z,50.852768
2023-11-10T09:13:19.602Z,50.852776
2023-11-10T09:14:20.543Z,50.852768
2023-11-10T09:15:20.212Z,50.852776
2023-11-10T09:16:21.177Z,50.852821
2023-11-10T09:17:19.583Z,50.852821
2023-11-10T09:18:19.572Z,50.852798
2023-11-10T09:19:19.575Z,50.852791
2023-11-10T09:20:19.584Z,50.852776
2023-11-10T09:21:20.041Z,50.852802
2023-11-10T09:22:19.561Z,50.852829
2023-11-10T09:23:19.695Z,50.852776
2023-11-10T09:24:19.564Z,50.852814
2023-11-10T09:25:19.545Z,50.852783
2023-11-10T09:26:19.549Z,50.852772
2023-11-10T09:27:19.512Z,50.852783
2023-11-10T09:28:20.584Z,50.852703
2023-11-10T09:29:19.493Z,50.852741
2023-11-10T09:30:19.576Z,50.852745
2023-11-10T09:31:19.501Z,50.852753
2023-11-10T09:32:19.537Z,50.852787
2023-11-10T09:33:20.128Z,50.852764
2023-11-10T09:34:19.552Z,50.852772
2023-11-10T09:35:19.763Z,50.852798
2023-11-10T09:36:19.510Z,50.852783
2023-11-10T09:37:19.443Z,50.852726
2023-11-10T09:38:19.535Z,50.852787
2023-11-10T09:39:20.107Z,50.852760
2023-11-10T09:40:19.458Z,50.852772
2023-11-10T09:41:19.556Z,50.852779
2023-11-10T09:42:19.525Z,50.852768
2023-11-10T09:43:20.122Z,50.852718
2023-11-10T09:44:19.509Z,50.852779
2023-11-10T09:45:21.783Z,50.852806
2023-11-10T09:46:19.546Z,50.852745
2023-11-10T09:47:19.405Z,50.852734
2023-11-10T09:48:19.431Z,50.852726
2023-11-10T09:49:19.380Z,50.852699
2023-11-10T09:50:19.494Z,50.852757
2023-11-10T09:51:19.387Z,50.852833
2023-11-10T09:52:19.387Z,50.852840
2023-11-10T09:53:19.385Z,50.852844
2023-11-10T09:54:19.376Z,50.852753
2023-11-10T09:55:19.374Z,50.852772
2023-11-10T09:56:19.360Z,50.852806
2023-11-10T09:57:20.661Z,50.852894
2023-11-10T09:58:19.357Z,50.852905
2023-11-10T09:59:19.318Z,50.852810
2023-11-10T10:00:19.352Z,50.852821
2023-11-10T10:01:20.124Z,50.852764
2023-11-10T10:02:19.338Z,50.852829
2023-11-10T10:03:19.371Z,50.852791
2023-11-10T10:04:19.373Z,50.852776
2023-11-10T10:05:19.317Z,50.852802
2023-11-10T10:06:19.329Z,50.852772
2023-11-10T10:07:19.277Z,50.852779
2023-11-10T10:08:19.306Z,50.852879
2023-11-10T10:09:19.272Z,50.852825
2023-11-10T10:10:19.302Z,50.852852
2023-11-10T10:11:19.263Z,50.852837
2023-11-10T10:12:19.279Z,50.852821
2023-11-10T10:13:19.245Z,50.852859
2023-11-10T10:14:19.255Z,50.852894
2023-11-10T10:15:21.275Z,50.852936
2023-11-10T10:16:19.282Z,50.852894
2023-11-10T10:17:19.229Z,50.852890
2023-11-10T10:18:19.226Z,50.852875
2023-11-10T10:19:19.214Z,50.852901
2023-11-10T10:20:19.221Z,50.852882
2023-11-10T10:21:19.192Z,50.852840
2023-11-10T10:22:19.292Z,50.852818
2023-11-10T10:23:19.181Z,50.852856
2023-11-10T10:24:19.198Z,50.852844
2023-11-10T10:25:19.161Z,50.852829
2023-11-10T10:26:19.191Z,50.852837
2023-11-10T10:27:20.900Z,50.852844
2023-11-10T10:28:19.162Z,50.852863
2023-11-10T10:29:19.136Z,50.852909
2023-11-10T10:30:19.165Z,50.852909
2023-11-10T10:31:19.297Z,50.852871
2023-11-10T10:32:19.163Z,50.852909
2023-11-10T10:33:19.180Z,50.852825
2023-11-10T10:34:19.243Z,50.852848
2023-11-10T10:35:19.099Z,50.852894
2023-11-10T10:36:19.127Z,50.852901
2023-11-10T10:37:19.113Z,50.852821
2023-11-10T10:38:19.102Z,50.852837
2023-11-10T10:39:20.273Z,50.852814
2023-11-10T10:40:19.103Z,50.852825
2023-11-10T10:41:19.070Z,50.852825
2023-11-10T10:42:19.128Z,50.852837
2023-11-10T10:43:19.070Z,50.852833
2023-11-10T10:44:19.065Z,50.852871
2023-11-10T10:45:20.229Z,50.852875
2023-11-10T10:46:19.164Z,50.852875
2023-11-10T10:47:19.036Z,50.852882
2023-11-10T10:48:19.066Z,50.852901
2023-11-10T10:49:19.047Z,50.852974
2023-11-10T10:50:19.078Z,50.852989
2023-11-10T10:51:20.437Z,50.852917
2023-11-10T10:52:19.033Z,50.852840
2023-11-10T10:53:19.008Z,50.852917
2023-11-10T10:54:19.036Z,50.852863
2023-11-10T10:55:19.073Z,50.852825
2023-11-10T10:56:27.734Z,50.852886
2023-11-10T10:57:21.479Z,50.852871
2023-11-10T10:58:18.989Z,50.852837
2023-11-10T10:59:18.988Z,50.852856
2023-11-10T11:00:18.992Z,50.852867
2023-11-10T11:01:19.012Z,50.852810
2023-11-10T11:02:18.965Z,50.852821
2023-11-10T11:03:20.382Z,50.852829
2023-11-10T11:04:19.014Z,50.852737
2023-11-10T11:05:18.952Z,50.852879
2023-11-10T11:06:18.959Z,50.852879
2023-11-10T11:07:18.937Z,50.852859
2023-11-10T11:08:18.967Z,50.852985
2023-11-10T11:09:20.381Z,50.852921
2023-11-10T11:10:18.959Z,50.852901
2023-11-10T11:11:18.893Z,50.852909
2023-11-10T11:12:18.909Z,50.852898
2023-11-10T11:13:19.009Z,50.852901
2023-11-10T11:14:18.888Z,50.852898
2023-11-10T11:15:18.883Z,50.852901
2023-11-10T11:16:18.906Z,50.852901
2023-11-10T11:17:18.856Z,50.852898
2023-11-10T11:18:18.930Z,50.852909
2023-11-10T11:19:18.838Z,50.852901
2023-11-10T11:20:18.857Z,50.852905
2023-11-10T11:21:19.441Z,50.852905
2023-11-10T11:22:18.867Z,50.852921
2023-11-10T11:23:18.823Z,50.852924
2023-11-10T11:24:18.837Z,50.852909
2023-11-10T11:25:18.805Z,50.852898